Copenhagen, Denmark

5:24 PM CEST on August 30, 2016 (GMT +0200)
Tømmerupvej | | Change Station

Elev 19 ft 55.61 °N, 12.63 °E | Updated 10 minutes ago

Partly Cloudy
Partly Cloudy
71.2 °F
Feels Like 76 °F
N
5.6
Wind Variable Wind from WNW
Gusts 13.0 mph

Today
High -- | Low -- °F
--% Chance of Precip.
Yesterday
High -- | Low -- °F
Precip. -- in
Pressure 30.18 in
Visibility 6.2 miles
Clouds Few 3800 ft
Heat Index 76 °F
Dew Point 55 °F
Humidity 56%
Rainfall 0.00 in
Snow Depth Not available.
6:11 AM 8:07 PM
Waning Crescent, 3% visible
METAR EKCH 301520Z 28015KT 9999 FEW038 21/12 Q1022 NOSIG
Pressure 30.18 in
Visibility 6.2 miles
Clouds Few 3800 ft
Heat Index 76 °F
Dew Point 55 °F
Humidity 56%
Rainfall 0.00 in
Snow Depth Not available.
6:11 AM 8:07 PM
Waning Crescent, 3% visible
METAR EKCH 301520Z 28015KT 9999 FEW038 21/12 Q1022 NOSIG

10-Day Weather Forecast

×

Almanac

Astronomy

Aug. 30, 2016 Rise Set
Actual Time
Civil Twilight
Nautical Twilight
Astronomical Twilight
Moon
Length of Visible Light
Length of Day
Tomorrow will be .
, % of the Moon is Illuminated

Today's Extremes

Country Highs Country Lows

Community

WunderPhotos

Upload Photos

1,935,855 photos uploaded!

WunderBlog® & News

Nearby

Air Quality

  Air Quality AQ Index Pollutant
Not available.

Snow Depth

Station Depth Elevation

Earthquake Activity

City Distance Mag. Time & Date
Minimum magnitude displayed is 2.5.

Coastal Water Temperatures

Place Temperature

Stations

Nearby Weather Stations

Station Location Temp. Windchill Dew Point Humidity Wind Precip. Elev Updated Type